Arendahl, Minnesota
Current Conditions -  °F | °C
As of 3:35 AM on Thursday 23 Oct 2014 (Local Time) from KFKA Reporting Station
Overcast Overcast  
Wind Chill: 42°   Ceiling: 6500
Heat Index: 47°   Visibility: 10mi
Dew Point: 43°   Wind: 10mph
Humidity: 86%   Direction: 180°S
Pressure: 30.07"   Gusts: NA
Location:  43.7298°N, 91.8267°W
Report Text: KFKA 230835Z AUTO 18009KT 10SM OVC065 08/06 A3007 RMK AO2 T00820060
Loading
Personal Weather Stations






























Interactive Weather Map
Tropical Storm Tracking
New forecast layout! Learn more

10-Day Weather Forecast

Advertisements
Track Severe Weather on mobile